Rome, OR

8:11 AM MDT on August 22, 2014 (GMT -0600)
Caldwell Industrial | Change Station
CLOSE
Current Station
Airport
Location: Caldwell,
Elevation: 2428 ft
Nearby Weather Stations

Elev 2428 ft 43.64 °N, 116.64 °W | Updated 16 minutes ago

Clear
Clear
55 °F
Feels Like 55 °F
N
4
Wind Variable Wind from WSW

Today
High -- | Low -- °F
--% Chance of Precip.
Yesterday
High -- | Low -- °F
Precip. -- in
7:03 AM 8:40 PM
Waning Crescent, 8% visible
Pressure 29.92 in
Visibility 10.0 miles
Clouds Clear
Dew Point 37 °F
Humidity 51%
Rainfall 0.00 in
Snow Depth Not available.
UV 0 out of 12
Pollen 5.70 out of 12
Air Quality Not available.
Flu Activity Not available.
METAR KEUL 221355Z AUTO 25003KT 10SM CLR 13/03 A2992 RMK AO1

More Conditions Fewer Conditions

Pressure 29.92 in
Visibility 10.0 miles
Clouds Clear
Dew Point 37 °F
Humidity 51%
Rainfall 0.00 in
Snow Depth Not available.
UV 0 out of 12
Pollen 5.70 out of 12
Air Quality Not available.
Flu Activity Not available.
METAR KEUL 221355Z AUTO 25003KT 10SM CLR 13/03 A2992 RMK AO1

More Conditions Fewer Conditions

10-Day Weather Forecast

Almanac

Astronomy

Aug. 22, 2014 Rise Set
Actual Time 7:03 AM MDT 8:40 PM MDT
Civil Twilight 6:34 AM MDT 9:10 PM MDT
Nautical Twilight 5:57 AM MDT 9:46 PM MDT
Astronomical Twilight 5:19 AM MDT 10:24 PM MDT
Moon 4:28 AM MDT 6:52 PM MDT
Length of Visible Light 14h 36m
Length of Day
13h 36m
Tomorrow will be 2m 40s shorter.
Waning Crescent, 8% of the Moon is Illuminated
Today
Waning Crescent
Aug 25
New
Sep 2
First Quarter
Sep 8
Full
Sep 15
Last Quarter

Today's Extremes

State Highs State Lows

Community

WunderPhotos

Upload Photos

1,746,175 photos uploaded!

Nearby

Snow Depth

Station Depth Elevation
Fish Creek 0 in 7900 ft
Rock Springs 0 in 5550 ft
Blue Mountain Spring 0 in 5900 ft
Starr Ridge 0 in 5300 ft
Snow Mountain 0 in 6220 ft

Earthquake Activity

City Distance Mag. Time & Date
No recent earthquake activity has been reported nearby.
Minimum magnitude displayed is 2.5.

Coastal Water Temperatures

Place Temperature
No Stations Reporting

Nearby Weather Stations